Time;durP1;ratioP1;P1;durP2;ratioP2;P2;SDS_P1;SDS_P2;PMS_P1;PMS_P2;Temp;Humidity;BMP_temperature;BMP_pressure;BME280_temperature;BME280_humidity;BME280_pressure;Samples;Min_cycle;Max_cycle;Signal;HPM_P1;HPM_P2
2023/10/23 00:02:00;;;;;;;14.23;8.63;;;;;;;;;;5095709;27;20433;-72
2023/10/23 00:04:27;;;;;;;14.43;8.45;;;;;;;;;;5099505;27;20497;-72
2023/10/23 00:06:53;;;;;;;13.43;8.73;;;;;;;;;;5100096;27;20851;-71
2023/10/23 00:09:20;;;;;;;16.10;9.70;;;;;;;;;;5099339;27;20467;-72
2023/10/23 00:11:46;;;;;;;17.25;9.25;;;;;;;;;;5116571;27;20918;-72
2023/10/23 00:14:12;;;;;;;13.60;9.37;;;;;;;;;;5116649;27;20395;-72
2023/10/23 00:16:38;;;;;;;17.02;10.32;;;;;;;;;;5099383;27;20410;-72
2023/10/23 00:19:04;;;;;;;15.73;10.38;;;;;;;;;;5104701;27;20418;-72
2023/10/23 00:21:30;;;;;;;14.98;10.05;;;;;;;;;;5109712;27;20414;-73
2023/10/23 00:23:56;;;;;;;14.20;10.23;;;;;;;;;;5116377;27;20434;-72
2023/10/23 00:26:22;;;;;;;14.77;10.35;;;;;;;;;;5098797;27;20485;-72
2023/10/23 00:28:49;;;;;;;15.55;10.82;;;;;;;;;;5115928;27;21691;-72
2023/10/23 00:31:15;;;;;;;18.70;11.35;;;;;;;;;;5118375;27;20446;-73
2023/10/23 00:33:41;;;;;;;17.48;11.55;;;;;;;;;;5113662;27;20911;-72
2023/10/23 00:36:08;;;;;;;15.43;11.38;;;;;;;;;;5117989;27;20484;-73
2023/10/23 00:38:34;;;;;;;17.25;11.15;;;;;;;;;;5136323;27;20445;-72
2023/10/23 00:41:00;;;;;;;16.92;11.43;;;;;;;;;;5137090;27;20393;-72
2023/10/23 00:43:26;;;;;;;18.08;11.73;;;;;;;;;;5118466;27;20385;-81
2023/10/23 00:46:06;;;;;;;17.02;11.65;;;7.50;99.90;;;;;;5114054;27;20411;-82
2023/10/23 00:48:32;;;;;;;17.52;11.52;;;7.50;99.90;;;;;;5116489;27;20398;-81
2023/10/23 00:51:00;;;;;;;17.77;11.87;;;7.50;99.90;;;;;;5116621;27;20394;-81
2023/10/23 00:53:29;;;;;;;18.27;12.18;;;7.50;99.90;;;;;;5095222;27;20449;-81
2023/10/23 00:55:57;;;;;;;21.37;12.07;;;;;;;;;;5103866;27;20926;-81
2023/10/23 00:58:26;;;;;;;18.90;12.32;;;;;;;;;;5131757;27;20405;-81
2023/10/23 01:00:54;;;;;;;17.35;12.77;;;7.50;99.90;;;;;;5123146;27;20460;-81
2023/10/23 01:03:20;;;;;;;17.73;12.98;;;;;;;;;;5120148;27;20388;-80
2023/10/23 01:05:46;;;;;;;20.13;12.55;;;;;;;;;;5118379;27;20523;-80
2023/10/23 01:08:12;;;;;;;18.88;13.00;;;;;;;;;;5122296;27;20401;-81
2023/10/23 01:10:38;;;;;;;19.30;12.90;;;;;;;;;;5115976;27;20452;-81
2023/10/23 01:13:07;;;;;;;17.23;12.70;;;;;;;;;;5107361;28;20559;-81
2023/10/23 01:15:34;;;;;;;19.67;13.18;;;;;;;;;;5075949;28;20754;-81
2023/10/23 01:18:00;;;;;;;21.38;13.32;;;;;;;;;;5118306;27;20420;-81
2023/10/23 01:20:28;;;;;;;22.50;13.70;;;7.30;99.90;;;;;;5094730;28;20396;-81
2023/10/23 01:22:59;;;;;;;21.73;14.27;;;7.60;99.90;;;;;;5112360;28;20400;-81
2023/10/23 01:25:25;;;;;;;23.45;13.52;;;;;;;;;;5112218;28;20385;-81
2023/10/23 01:27:51;;;;;;;19.88;13.65;;;;;;;;;;5092320;28;20403;-81
2023/10/23 01:30:18;;;;;;;20.33;13.75;;;;;;;;;;5090737;27;20398;-82
2023/10/23 01:32:44;;;;;;;22.58;14.23;;;;;;;;;;5113788;27;20440;-81
2023/10/23 01:35:10;;;;;;;19.67;13.70;;;7.20;99.90;;;;;;5112228;27;20397;-80
2023/10/23 01:37:36;;;;;;;26.45;14.75;;;;;;;;;;5110795;28;20911;-81
2023/10/23 01:40:03;;;;;;;21.52;14.20;;;;;;;;;;5093800;27;20807;-81
2023/10/23 01:42:31;;;;;;;22.57;14.90;;;7.40;99.90;;;;;;5100893;28;20400;-81
2023/10/23 01:44:57;;;;;;;21.25;14.40;;;;;;;;;;5110986;28;20404;-81
2023/10/23 01:47:23;;;;;;;23.97;15.53;;;;;;;;;;5093621;28;20400;-82
2023/10/23 01:49:49;;;;;;;23.40;14.63;;;;;;;;;;5091120;28;20406;-81
2023/10/23 01:52:16;;;;;;;26.70;15.70;;;7.20;99.90;;;;;;5111972;27;21048;-82
2023/10/23 01:54:43;;;;;;;20.75;14.98;;;;;;;;;;5111928;28;20483;-81
2023/10/23 01:57:10;;;;;;;21.80;15.35;;;;;;;;;;5085857;28;20741;-81
2023/10/23 01:59:36;;;;;;;22.58;15.68;;;;;;;;;;5108402;28;20889;-81
2023/10/23 02:02:02;;;;;;;20.35;13.48;;;;;;;;;;5099317;28;20446;-81
2023/10/23 02:04:28;;;;;;;24.33;14.80;;;;;;;;;;5095859;28;20931;-81
2023/10/23 02:06:55;;;;;;;25.02;15.30;;;;;;;;;;5105951;28;20757;-82
2023/10/23 02:09:21;;;;;;;24.27;14.80;;;;;;;;;;5091314;28;20413;-81
2023/10/23 02:11:47;;;;;;;24.73;14.90;;;;;;;;;;5086042;28;20428;-82
2023/10/23 02:14:13;;;;;;;24.73;15.23;;;;;;;;;;5112717;27;20407;-81
2023/10/23 02:16:39;;;;;;;23.17;15.57;;;;;;;;;;5102324;28;20402;-82
2023/10/23 02:19:05;;;;;;;25.42;16.42;;;;;;;;;;5116180;27;20481;-81
2023/10/23 02:21:31;;;;;;;25.55;16.58;;;;;;;;;;5111406;28;20408;-81
2023/10/23 02:23:58;;;;;;;22.75;15.57;;;;;;;;;;5112087;28;20392;-81
2023/10/23 02:26:25;;;;;;;24.52;16.15;;;;;;;;;;5094426;28;20453;-82
2023/10/23 02:28:51;;;;;;;24.57;16.30;;;;;;;;;;5099954;28;20563;-81
2023/10/23 02:31:17;;;;;;;23.25;16.58;;;;;;;;;;5116813;28;20431;-82
2023/10/23 02:33:43;;;;;;;24.60;16.10;;;;;;;;;;5093594;28;20907;-82
2023/10/23 02:36:09;;;;;;;25.02;16.60;;;;;;;;;;5074720;28;20409;-81
2023/10/23 02:38:35;;;;;;;23.65;16.83;;;;;;;;;;5078510;28;20405;-82
2023/10/23 02:41:02;;;;;;;24.00;15.55;;;;;;;;;;5086774;28;20437;-82
2023/10/23 02:43:28;;;;;;;24.10;16.33;;;;;;;;;;5090954;28;20898;-82
2023/10/23 02:45:54;;;;;;;21.50;15.32;;;;;;;;;;5099096;28;20902;-82
2023/10/23 02:48:20;;;;;;;23.70;16.15;;;;;;;;;;5082126;28;20417;-82
2023/10/23 02:50:53;;;;;;;23.75;16.13;;;6.90;99.90;;;;;;5102175;28;20417;-82
2023/10/23 02:53:19;;;;;;;23.98;16.25;;;;;;;;;;5090852;28;20425;-81
2023/10/23 02:55:45;;;;;;;23.50;16.33;;;;;;;;;;5089404;28;20515;-82
2023/10/23 02:58:11;;;;;;;27.13;15.63;;;;;;;;;;5081550;28;20444;-82
2023/10/23 03:00:38;;;;;;;22.77;15.48;;;;;;;;;;5101938;28;20517;-82
2023/10/23 03:03:05;;;;;;;21.70;15.53;;;;;;;;;;5075054;28;20501;-72
2023/10/23 03:05:31;;;;;;;26.20;15.98;;;;;;;;;;5085127;27;20414;-72
2023/10/23 03:07:57;;;;;;;23.90;15.65;;;;;;;;;;5104845;27;20897;-72
2023/10/23 03:10:23;;;;;;;24.52;15.40;;;;;;;;;;5080715;27;20767;-72
2023/10/23 03:12:49;;;;;;;22.10;16.00;;;;;;;;;;5114333;27;20424;-72
2023/10/23 03:15:16;;;;;;;21.30;15.98;;;;;;;;;;5083203;27;20970;-72
2023/10/23 03:17:42;;;;;;;26.45;16.00;;;;;;;;;;5097531;28;20400;-72
2023/10/23 03:20:09;;;;;;;25.30;15.75;;;;;;;;;;5088308;28;20395;-72
2023/10/23 03:22:35;;;;;;;23.25;15.73;;;;;;;;;;5080955;28;20891;-72
2023/10/23 03:25:01;;;;;;;22.00;16.00;;;;;;;;;;5114287;28;20811;-72
2023/10/23 03:27:27;;;;;;;25.17;16.58;;;;;;;;;;5114115;28;20904;-72
2023/10/23 03:29:53;;;;;;;23.52;16.17;;;6.90;99.90;;;;;;5095637;28;20407;-72
2023/10/23 03:32:19;;;;;;;23.50;16.50;;;;;;;;;;5091270;28;20427;-72
2023/10/23 03:34:45;;;;;;;24.05;16.67;;;;;;;;;;5080453;27;20513;-72
2023/10/23 03:37:11;;;;;;;25.50;16.10;;;;;;;;;;5111825;27;20399;-72
2023/10/23 03:39:37;;;;;;;25.83;17.23;;;;;;;;;;5099091;28;20456;-72
2023/10/23 03:42:03;;;;;;;26.60;17.40;;;;;;;;;;5093519;28;20409;-72
2023/10/23 03:44:30;;;;;;;24.15;17.52;;;;;;;;;;5093279;27;20535;-72
2023/10/23 03:46:56;;;;;;;24.58;16.88;;;;;;;;;;5104327;27;20413;-72
2023/10/23 03:49:22;;;;;;;22.88;15.30;;;;;;;;;;5114674;27;20422;-72
2023/10/23 03:51:48;;;;;;;22.02;14.52;;;;;;;;;;5134654;27;20494;-71
2023/10/23 03:54:14;;;;;;;24.38;15.68;;;;;;;;;;5097725;28;20908;-72
2023/10/23 03:56:40;;;;;;;19.40;13.98;;;;;;;;;;5109550;28;20755;-72
2023/10/23 03:59:06;;;;;;;22.38;15.15;;;;;;;;;;5096368;28;20396;-73
2023/10/23 04:01:32;;;;;;;21.33;14.85;;;;;;;;;;5099657;28;20413;-73
2023/10/23 04:03:58;;;;;;;23.55;14.80;;;;;;;;;;5108153;27;20801;-72
2023/10/23 04:06:24;;;;;;;23.38;15.57;;;;;;;;;;5107898;28;20416;-73
2023/10/23 04:08:54;;;;;;;23.95;15.27;;;;;;;;;;5116432;28;20491;-83
2023/10/23 04:11:20;;;;;;;21.13;15.17;;;;;;;;;;5105861;28;20832;-82
2023/10/23 04:13:46;;;;;;;22.85;14.75;;;;;;;;;;5113721;28;21079;-82
2023/10/23 04:16:12;;;;;;;22.73;15.30;;;;;;;;;;5113982;28;20396;-82
2023/10/23 04:18:39;;;;;;;21.98;14.57;;;;;;;;;;5096784;28;20424;-82
2023/10/23 04:21:05;;;;;;;25.10;15.07;;;;;;;;;;5093158;28;20471;-82
2023/10/23 04:23:32;;;;;;;22.85;15.48;;;;;;;;;;5094782;28;20410;-82
2023/10/23 04:25:58;;;;;;;22.73;14.93;;;;;;;;;;5093164;28;20405;-82
2023/10/23 04:28:24;;;;;;;22.67;16.13;;;;;;;;;;5076594;28;20587;-82
2023/10/23 04:30:50;;;;;;;26.15;15.75;;;;;;;;;;5076609;28;20401;-82
2023/10/23 04:33:21;;;;;;;21.40;14.95;;;;;;;;;;5093072;28;20414;-82
2023/10/23 04:35:47;;;;;;;25.35;15.55;;;;;;;;;;5103400;28;20404;-82
2023/10/23 04:38:13;;;;;;;23.50;15.27;;;;;;;;;;5093569;28;20492;-82
2023/10/23 04:40:39;;;;;;;22.92;15.75;;;;;;;;;;5093519;28;20448;-82
2023/10/23 04:43:05;;;;;;;28.27;16.52;;;;;;;;;;5093357;28;20409;-82
2023/10/23 04:45:31;;;;;;;26.20;16.07;;;;;;;;;;5107801;28;20400;-82
2023/10/23 04:47:57;;;;;;;26.85;16.00;;;;;;;;;;5121701;27;20423;-72
2023/10/23 04:50:23;;;;;;;29.73;16.27;;;;;;;;;;5091458;27;20417;-72
2023/10/23 04:52:49;;;;;;;25.52;16.17;;;;;;;;;;5102118;27;20414;-72
2023/10/23 04:55:15;;;;;;;24.52;15.18;;;;;;;;;;5108734;28;20440;-72
2023/10/23 04:57:41;;;;;;;19.65;14.02;;;;;;;;;;5073517;28;20404;-72
2023/10/23 05:00:08;;;;;;;23.58;14.68;;;;;;;;;;5111386;27;20437;-72
2023/10/23 05:02:34;;;;;;;22.65;15.45;;;;;;;;;;5094316;28;20428;-72
2023/10/23 05:05:00;;;;;;;32.22;16.52;;;;;;;;;;5104513;27;20409;-72
2023/10/23 05:07:26;;;;;;;25.35;16.58;;;;;;;;;;5091677;28;20410;-72
2023/10/23 05:09:52;;;;;;;26.17;16.25;;;;;;;;;;5085387;28;20412;-71
2023/10/23 05:12:18;;;;;;;26.58;16.13;;;;;;;;;;5095035;28;20985;-72
2023/10/23 05:14:44;;;;;;;28.80;16.23;;;;;;;;;;5092385;27;20404;-71
2023/10/23 05:17:10;;;;;;;28.05;16.10;;;;;;;;;;5115346;27;20910;-72
2023/10/23 05:19:36;;;;;;;25.63;15.82;;;;;;;;;;5106843;27;20893;-72
2023/10/23 05:22:02;;;;;;;24.67;16.97;;;;;;;;;;5076879;28;20796;-71
2023/10/23 05:24:28;;;;;;;34.00;17.25;;;;;;;;;;5086124;28;20459;-72
2023/10/23 05:26:54;;;;;;;41.03;19.83;;;;;;;;;;5078770;28;20450;-72
2023/10/23 05:29:20;;;;;;;30.83;19.13;;;;;;;;;;5099134;28;20483;-72
2023/10/23 05:31:47;;;;;;;29.33;17.42;;;5.60;99.90;;;;;;5082126;28;20424;-72
2023/10/23 05:34:13;;;;;;;22.30;15.87;;;;;;;;;;5081311;28;20469;-72
2023/10/23 05:36:39;;;;;;;23.05;15.50;;;;;;;;;;5090871;28;20410;-72
2023/10/23 05:39:06;;;;;;;24.07;15.70;;;;;;;;;;5077790;27;20420;-72
2023/10/23 05:41:32;;;;;;;24.17;16.35;;;;;;;;;;5110281;28;20415;-72
2023/10/23 05:43:58;;;;;;;28.27;16.55;;;;;;;;;;5085479;27;20526;-72
2023/10/23 05:46:24;;;;;;;27.23;16.75;;;;;;;;;;5112388;27;20763;-72
2023/10/23 05:48:50;;;;;;;25.63;16.40;;;;;;;;;;5114406;27;20406;-72
2023/10/23 05:51:16;;;;;;;23.40;16.02;;;;;;;;;;5107545;27;20559;-72
2023/10/23 05:53:42;;;;;;;28.17;17.75;;;;;;;;;;5107396;27;20417;-72
2023/10/23 05:56:08;;;;;;;33.88;21.08;;;;;;;;;;5078690;28;20402;-73
2023/10/23 05:58:35;;;;;;;30.75;19.55;;;;;;;;;;5093574;28;20398;-72
2023/10/23 06:01:09;;;;;;;27.57;17.00;;;5.70;99.90;;;;;;5110865;27;20416;-71
2023/10/23 06:03:36;;;;;;;27.38;16.85;;;;;;;;;;5107511;27;20417;-72
2023/10/23 06:06:02;;;;;;;23.05;15.88;;;;;;;;;;5093223;28;20424;-71
2023/10/23 06:08:28;;;;;;;31.83;18.40;;;;;;;;;;5099254;28;20519;-71
2023/10/23 06:10:54;;;;;;;23.00;15.27;;;;;;;;;;5088628;27;20412;-71
2023/10/23 06:13:20;;;;;;;26.48;16.55;;;;;;;;;;5097648;27;20457;-72
2023/10/23 06:15:47;;;;;;;29.95;18.02;;;;;;;;;;5112312;27;20394;-72
2023/10/23 06:18:13;;;;;;;32.10;19.10;;;;;;;;;;5108376;27;20431;-72
2023/10/23 06:20:39;;;;;;;23.55;17.38;;;;;;;;;;5110853;27;20439;-72
2023/10/23 06:23:05;;;;;;;28.27;18.73;;;;;;;;;;5113250;27;20723;-75
2023/10/23 06:25:32;;;;;;;31.90;16.70;;;;;;;;;;5113562;28;20408;-73
2023/10/23 06:27:59;;;;;;;23.42;16.33;;;;;;;;;;5102558;27;20400;-73
2023/10/23 06:30:25;;;;;;;22.95;15.98;;;;;;;;;;5117153;27;20498;-73
2023/10/23 06:32:52;;;;;;;29.30;17.58;;;;;;;;;;5080803;27;20428;-73
2023/10/23 06:35:18;;;;;;;25.00;17.10;;;;;;;;;;5118384;27;20411;-73
2023/10/23 06:37:44;;;;;;;24.45;17.00;;;;;;;;;;5114335;28;20387;-73
2023/10/23 06:40:10;;;;;;;25.70;16.70;;;;;;;;;;5096170;28;20513;-72
2023/10/23 06:42:37;;;;;;;26.85;17.35;;;;;;;;;;5097258;28;20885;-73
2023/10/23 06:45:03;;;;;;;29.02;19.05;;;;;;;;;;5114237;28;20451;-73
2023/10/23 06:47:29;;;;;;;27.65;18.10;;;;;;;;;;5096294;28;20981;-73
2023/10/23 06:49:55;;;;;;;27.13;18.98;;;;;;;;;;5121141;27;20424;-73
2023/10/23 06:52:21;;;;;;;31.88;21.17;;;;;;;;;;5113565;28;20827;-74
2023/10/23 06:54:47;;;;;;;33.13;21.67;;;;;;;;;;5113605;28;20447;-73
2023/10/23 06:57:13;;;;;;;30.90;21.02;;;;;;;;;;5099453;28;20449;-73
2023/10/23 06:59:40;;;;;;;31.33;20.90;;;;;;;;;;5093921;28;20454;-73
2023/10/23 07:02:06;;;;;;;33.25;21.27;;;;;;;;;;5089800;28;20416;-74
2023/10/23 07:04:32;;;;;;;38.30;22.92;;;;;;;;;;5087452;28;20807;-73
2023/10/23 07:06:58;;;;;;;30.08;20.95;;;;;;;;;;5121042;27;20459;-73
2023/10/23 07:09:24;;;;;;;32.70;20.48;;;;;;;;;;5111301;27;20408;-73
2023/10/23 07:11:50;;;;;;;29.05;19.42;;;;;;;;;;5088400;28;20477;-73
2023/10/23 07:14:16;;;;;;;27.67;18.67;;;;;;;;;;5089594;28;20402;-73
2023/10/23 07:16:43;;;;;;;29.23;19.13;;;;;;;;;;5103110;28;20416;-73
2023/10/23 07:19:11;;;;;;;30.40;18.50;;;;;;;;;;5089203;28;20485;-73
2023/10/23 07:21:37;;;;;;;26.40;17.77;;;;;;;;;;5106401;28;20415;-73
2023/10/23 07:24:03;;;;;;;20.95;15.73;;;;;;;;;;5089800;28;20404;-74
2023/10/23 07:26:29;;;;;;;23.70;16.42;;;;;;;;;;5096353;28;20920;-74
2023/10/23 07:28:55;;;;;;;22.67;15.60;;;;;;;;;;5093081;28;20439;-74
2023/10/23 07:31:22;;;;;;;21.17;14.68;;;;;;;;;;5081134;28;20408;-74
2023/10/23 07:33:50;;;;;;;19.90;14.00;;;;;;;;;;5072460;28;20402;-73
2023/10/23 07:36:17;;;;;;;19.70;13.75;;;;;;;;;;5089882;28;20410;-73
2023/10/23 07:38:44;;;;;;;19.23;14.07;;;;;;;;;;5089370;28;20487;-74
2023/10/23 07:41:11;;;;;;;18.00;13.68;;;7.70;99.90;;;;;;5120968;28;20394;-74
2023/10/23 07:43:37;;;;;;;20.23;14.30;;;;;;;;;;5106437;28;20423;-74
2023/10/23 07:46:06;;;;;;;18.17;14.02;;;;;;;;;;5100892;28;20405;-74
2023/10/23 07:48:32;;;;;;;18.70;13.70;;;;;;;;;;5087552;28;20986;-74
2023/10/23 07:50:59;;;;;;;21.00;13.15;;;;;;;;;;5110601;27;20401;-75
2023/10/23 07:53:28;;;;;;;18.20;13.60;;;;;;;;;;5097982;27;20446;-74
2023/10/23 07:55:55;;;;;;;16.30;12.52;;;;;;;;;;5107066;28;20404;-74
2023/10/23 07:58:22;;;;;;;18.23;12.57;;;;;;;;;;5122832;27;20434;-73
2023/10/23 08:00:51;;;;;;;18.25;13.25;;;;;;;;;;5098493;27;20427;-73
2023/10/23 08:03:18;;;;;;;16.33;12.30;;;;;;;;;;5119298;27;20493;-73
2023/10/23 08:05:44;;;;;;;22.40;12.60;;;;;;;;;;5122920;27;20411;-73
2023/10/23 08:08:10;;;;;;;17.73;12.30;;;;;;;;;;5072919;27;20956;-74
2023/10/23 08:10:36;;;;;;;17.33;12.80;;;;;;;;;;5132941;27;20433;-74
2023/10/23 08:13:02;;;;;;;17.40;13.10;;;;;;;;;;5104354;28;20416;-74
2023/10/23 08:15:28;;;;;;;17.33;13.33;;;;;;;;;;5104340;28;20952;-74
2023/10/23 08:17:54;;;;;;;15.20;11.80;;;;;;;;;;5111900;27;20926;-74
2023/10/23 08:20:20;;;;;;;14.95;11.52;;;;;;;;;;5091941;28;20440;-73
2023/10/23 08:22:46;;;;;;;13.07;11.10;;;;;;;;;;5098912;27;20486;-73
2023/10/23 08:25:13;;;;;;;16.05;11.32;;;;;;;;;;5094695;28;20404;-73
2023/10/23 08:27:39;;;;;;;15.73;11.45;;;;;;;;;;5123167;27;20437;-74
2023/10/23 08:30:05;;;;;;;13.97;11.17;;;;;;;;;;5116911;27;20404;-74
2023/10/23 08:32:32;;;;;;;14.25;11.38;;;;;;;;;;5093674;27;20940;-73
2023/10/23 08:34:58;;;;;;;17.45;12.70;;;;;;;;;;5080994;28;20406;-74
2023/10/23 08:37:24;;;;;;;14.95;12.50;;;;;;;;;;5090115;27;20444;-75
2023/10/23 08:39:50;;;;;;;18.42;12.65;;;;;;;;;;5092405;28;20523;-73
2023/10/23 08:42:16;;;;;;;20.23;15.82;;;;;;;;;;5118196;27;20783;-73
2023/10/23 08:44:43;;;;;;;16.73;13.48;;;10.60;99.90;;;;;;5105431;27;20398;-75
2023/10/23 08:47:09;;;;;;;17.45;13.73;;;;;;;;;;5093540;27;20746;-74
2023/10/23 08:49:35;;;;;;;16.50;13.27;;;;;;;;;;5100245;27;20981;-74
2023/10/23 08:52:03;;;;;;;14.60;12.35;;;;;;;;;;5103263;28;20439;-74
2023/10/23 08:54:29;;;;;;;15.82;12.02;;;;;;;;;;5107758;27;20490;-73
2023/10/23 08:57:00;;;;;;;13.75;10.82;;;;;;;;;;5108046;28;20469;-74
2023/10/23 08:59:27;;;;;;;14.93;11.18;;;;;;;;;;5090436;28;20412;-74
2023/10/23 09:01:53;;;;;;;13.48;11.63;;;11.60;99.90;;;;;;5070497;27;20768;-74
2023/10/23 09:04:19;;;;;;;15.13;12.20;;;;;;;;;;5103717;27;20479;-75
2023/10/23 09:06:46;;;;;;;14.25;12.32;;;;;;;;;;5116672;27;20737;-74
2023/10/23 09:09:12;;;;;;;12.38;10.82;;;11.90;99.90;;;;;;5080392;28;20757;-74
2023/10/23 09:11:45;;;;;;;12.05;9.80;;;;;;;;;;5095138;28;20420;-75
2023/10/23 09:14:23;;;;;;;14.57;11.45;;;12.20;99.90;;;;;;5109968;27;20416;-74
2023/10/23 09:16:50;;;;;;;14.37;11.30;;;12.40;99.90;;;;;;5095194;28;20516;-74
2023/10/23 09:19:34;;;;;;;14.23;9.93;;;12.30;99.90;;;;;;5087468;28;20422;-74
2023/10/23 09:22:00;;;;;;;13.48;9.98;;;;;;;;;;5110839;28;20404;-74
2023/10/23 09:24:26;;;;;;;12.55;9.48;;;;;;;;;;5108163;28;20402;-75
2023/10/23 09:26:52;;;;;;;11.60;9.50;;;;;;;;;;5101819;28;20756;-75
2023/10/23 09:29:23;;;;;;;11.13;9.15;;;12.80;99.90;;;;;;5102944;27;20753;-75
2023/10/23 09:31:50;;;;;;;12.27;8.80;;;13.00;99.90;;;;;;5106681;28;20417;-75
2023/10/23 09:34:18;;;;;;;13.90;9.38;;;;;;;;;;5104753;27;20404;-75
2023/10/23 09:36:45;;;;;;;10.83;8.60;;;13.10;99.90;;;;;;5083797;28;20529;-75
2023/10/23 09:39:11;;;;;;;11.40;8.55;;;12.80;99.90;;;;;;5076300;28;20502;-75
2023/10/23 09:41:37;;;;;;;16.73;13.98;;;12.90;99.90;;;;;;5099761;28;21012;-75
2023/10/23 09:44:04;;;;;;;16.17;10.85;;;13.20;99.90;;;;;;5117867;27;20404;-75
2023/10/23 09:46:31;;;;;;;13.77;10.55;;;13.20;99.90;;;;;;5091110;28;20483;-75
2023/10/23 09:49:03;;;;;;;9.23;7.05;;;;;;;;;;5090265;28;20437;-75
2023/10/23 09:51:39;;;;;;;12.60;7.32;;;13.30;99.90;;;;;;5091530;27;20402;-75
2023/10/23 09:54:27;;;;;;;11.68;8.13;;;13.50;99.90;;;;;;5100146;28;20405;-84
2023/10/23 09:56:54;;;;;;;10.03;7.67;;;13.60;99.90;;;;;;5109119;27;20559;-83
2023/10/23 09:59:32;;;;;;;10.88;8.43;;;13.60;99.90;;;;;;5102645;27;20429;-83
2023/10/23 10:02:00;;;;;;;10.30;7.18;;;13.50;99.90;;;;;;5078129;28;20403;-83
2023/10/23 10:04:30;;;;;;;8.00;5.50;;;;;;;;;;5094899;28;20400;-83
2023/10/23 10:07:04;;;;;;;7.35;5.05;;;14.00;99.90;;;;;;5086948;27;20408;-84
2023/10/23 10:09:31;;;;;;;8.70;5.00;;;;;;;;;;5091203;28;20479;-83
2023/10/23 10:11:58;;;;;;;8.07;5.07;;;14.20;99.90;;;;;;5072205;28;20426;-83
2023/10/23 10:14:27;;;;;;;7.80;4.70;;;14.10;99.90;;;;;;5104174;28;20481;-84
2023/10/23 10:16:57;;;;;;;8.13;4.70;;;14.30;99.90;;;;;;5102863;28;20729;-84
2023/10/23 10:19:26;;;;;;;7.80;5.18;;;;;;;;;;5097753;28;20749;-83
2023/10/23 10:22:03;;;;;;;9.60;6.40;;;;;;;;;;5074733;28;20874;-83
2023/10/23 10:24:30;;;;;;;8.27;5.22;;;14.30;99.90;;;;;;5074637;28;20440;-83
2023/10/23 10:26:56;;;;;;;6.73;3.90;;;;;;;;;;5101927;28;20410;-83
2023/10/23 10:29:26;;;;;;;9.25;4.13;;;14.50;99.90;;;;;;5077752;28;20411;-82
2023/10/23 10:32:12;;;;;;;5.72;3.25;;;14.20;99.90;;;;;;5112631;28;20417;-84
2023/10/23 10:34:38;;;;;;;7.17;3.60;;;;;;;;;;5099428;28;20437;-84
2023/10/23 10:37:08;;;;;;;5.85;3.38;;;;;;;;;;5099245;28;20435;-84
2023/10/23 10:39:52;;;;;;;8.07;3.22;;;;;;;;;;5111195;28;20457;-84
2023/10/23 10:42:26;;;;;;;5.37;3.00;;;14.30;99.90;;;;;;5102698;28;20398;-83
2023/10/23 10:44:55;;;;;;;5.40;2.97;;;;;;;;;;5103924;28;20754;-84
2023/10/23 10:47:41;;;;;;;6.22;2.97;;;14.60;99.90;;;;;;5090906;28;20485;-84
2023/10/23 10:50:10;;;;;;;5.57;2.90;;;;;;;;;;5075074;28;20408;-83
2023/10/23 10:52:37;;;;;;;5.20;3.00;;;;;;;;;;5088462;28;20418;-83
2023/10/23 10:55:03;;;;;;;4.97;2.55;;;;;;;;;;5110501;28;20405;-84
2023/10/23 10:57:30;;;;;;;8.60;2.78;;;14.80;99.90;;;;;;5104005;28;20412;-84
2023/10/23 10:59:57;;;;;;;5.97;2.80;;;;;;;;;;5088488;28;20501;-84
2023/10/23 11:02:24;;;;;;;4.72;2.38;;;;;;;;;;5106014;28;20408;-84
2023/10/23 11:04:50;;;;;;;5.72;2.47;;;;;;;;;;5076441;28;20747;-83
2023/10/23 11:07:23;;;;;;;4.13;2.13;;;14.70;99.90;;;;;;5095810;28;20408;-83
2023/10/23 11:09:50;;;;;;;5.03;2.03;;;14.70;99.90;;;;;;5100335;28;20475;-83
2023/10/23 11:12:20;;;;;;;4.33;2.20;;;14.80;99.90;;;;;;5086665;28;20549;-84
2023/10/23 11:14:50;;;;;;;6.40;2.10;;;;;;;;;;5100060;28;20424;-85
2023/10/23 11:17:16;;;;;;;5.45;2.63;;;;;;;;;;5086475;28;20401;-83
2023/10/23 11:19:42;;;;;;;5.38;2.53;;;;;;;;;;5105243;28;20479;-83
2023/10/23 11:22:12;;;;;;;6.68;2.60;;;;;;;;;;5129146;27;20477;-83
2023/10/23 11:24:39;;;;;;;5.05;2.63;;;;;;;;;;5122941;27;20402;-84
2023/10/23 11:27:05;;;;;;;4.03;2.15;;;;;;;;;;5082630;28;20404;-83
2023/10/23 11:29:44;;;;;;;4.82;2.50;;;14.80;99.90;;;;;;5119223;27;20977;-83
2023/10/23 11:32:15;;;;;;;4.57;2.50;;;14.90;99.90;;;;;;5102867;28;20988;-83
2023/10/23 11:34:42;;;;;;;4.97;2.72;;;15.30;99.90;;;;;;5109522;27;20503;-84
2023/10/23 11:37:10;;;;;;;6.45;2.90;;;14.80;99.90;;;;;;5114657;28;21058;-84
2023/10/23 11:39:37;;;;;;;5.45;3.05;;;;;;;;;;5082833;28;20897;-84
2023/10/23 11:42:04;;;;;;;4.60;2.90;;;14.90;99.90;;;;;;5084689;28;20488;-83
2023/10/23 11:44:31;;;;;;;5.43;2.70;;;15.20;99.90;;;;;;5114787;28;20405;-82
2023/10/23 11:46:58;;;;;;;5.55;2.65;;;15.00;99.90;;;;;;5095917;27;20418;-83
2023/10/23 11:49:24;;;;;;;5.55;2.60;;;14.70;99.90;;;;;;5135260;27;20426;-83
2023/10/23 11:51:51;;;;;;;5.18;2.78;;;;;;;;;;5115543;27;20906;-83
2023/10/23 11:54:17;;;;;;;4.78;2.80;;;14.90;99.90;;;;;;5105480;27;20404;-83
2023/10/23 11:56:44;;;;;;;6.27;3.17;;;;;;;;;;5094465;28;20445;-83
2023/10/23 11:59:17;;;;;;;6.10;3.22;;;14.90;99.90;;;;;;5095429;27;20989;-83
2023/10/23 12:01:44;;;;;;;7.45;3.17;;;;;;;;;;5102652;27;20412;-83
2023/10/23 12:04:10;;;;;;;5.50;2.85;;;;;;;;;;5084515;28;20502;-83
2023/10/23 12:06:37;;;;;;;4.88;2.83;;;15.10;99.90;;;;;;5094263;28;20406;-83
2023/10/23 12:09:04;;;;;;;4.90;2.60;;;14.70;99.90;;;;;;5102721;28;20470;-84
2023/10/23 12:11:31;;;;;;;8.05;6.13;;;14.70;99.90;;;;;;5098363;27;20563;-82
2023/10/23 12:13:59;;;;;;;10.48;8.30;;;;;;;;;;5113359;27;20430;-84
2023/10/23 12:16:26;;;;;;;9.82;8.75;;;14.50;99.90;;;;;;5114006;27;20403;-84
2023/10/23 12:18:51;;;;;;;11.40;9.87;;;14.00;99.90;;;;;;5097647;27;20400;-82
2023/10/23 12:21:18;;;;;;;11.50;9.83;;;;;;;;;;5114586;27;20467;-84
2023/10/23 12:23:44;;;;;;;12.00;10.60;;;;;;;;;;5118779;27;20403;-84
2023/10/23 12:26:11;;;;;;;14.38;11.73;;;;;;;;;;5100433;27;20402;-84
2023/10/23 12:28:37;;;;;;;14.68;12.48;;;;;;;;;;5116671;27;20390;-84
2023/10/23 12:31:06;;;;;;;14.65;13.05;;;;;;;;;;5118861;27;20444;-84
2023/10/23 12:33:32;;;;;;;17.05;13.50;;;;;;;;;;5124740;27;20492;-84
2023/10/23 12:36:00;;;;;;;22.05;13.48;;;;;;;;;;5138654;27;20412;-84
2023/10/23 12:38:30;;;;;;;19.00;14.55;;;;;;;;;;5123816;27;20426;-83
2023/10/23 12:40:56;;;;;;;16.00;13.70;;;;;;;;;;5122222;27;20434;-84
2023/10/23 12:43:22;;;;;;;18.52;14.30;;;;;;;;;;5121622;27;20413;-84
2023/10/23 12:45:48;;;;;;;18.25;14.65;;;;;;;;;;5104470;27;20400;-84
2023/10/23 12:48:14;;;;;;;16.07;14.20;;;;;;;;;;5121103;27;20417;-83
2023/10/23 12:50:40;;;;;;;18.75;15.20;;;;;;;;;;5114153;27;20430;-84
2023/10/23 12:53:08;;;;;;;18.13;15.05;;;13.40;99.90;;;;;;5121016;27;21081;-84
2023/10/23 12:55:34;;;;;;;15.38;13.75;;;;;;;;;;5104826;27;20802;-84
2023/10/23 12:58:02;;;;;;;15.55;13.13;;;13.40;99.90;;;;;;5094322;27;20394;-83
2023/10/23 13:00:28;;;;;;;16.58;12.95;;;;;;;;;;5096084;28;20403;-84
2023/10/23 13:02:54;;;;;;;14.43;12.93;;;;;;;;;;5080198;28;20462;-81
2023/10/23 13:05:21;;;;;;;15.90;12.80;;;;;;;;;;5079166;28;20892;-82
2023/10/23 13:07:46;;;;;;;16.60;12.63;;;13.30;99.90;;;;;;5113684;27;20422;-83
2023/10/23 13:10:12;;;;;;;15.43;12.88;;;;;;;;;;5105572;27;20416;-83
2023/10/23 13:12:39;;;;;;;14.13;12.55;;;;;;;;;;5096460;27;20415;-83
2023/10/23 13:15:05;;;;;;;14.60;12.88;;;;;;;;;;5116688;27;20394;-83
2023/10/23 13:17:31;;;;;;;14.95;12.23;;;;;;;;;;5087105;27;20467;-83
2023/10/23 13:19:57;;;;;;;15.85;13.70;;;;;;;;;;5107871;27;20504;-82
2023/10/23 13:22:23;;;;;;;14.68;12.65;;;;;;;;;;5121379;27;20477;-82
2023/10/23 13:24:49;;;;;;;15.43;12.40;;;;;;;;;;5101398;27;20502;-84
2023/10/23 13:27:15;;;;;;;15.10;12.40;;;;;;;;;;5089463;28;20404;-83
2023/10/23 13:29:42;;;;;;;15.02;12.32;;;;;;;;;;5085870;27;22195;-83
2023/10/23 13:32:08;;;;;;;15.77;12.37;;;;;;;;;;5081008;27;20415;-83
2023/10/23 13:34:34;;;;;;;16.63;13.77;;;;;;;;;;5078976;28;20466;-82
2023/10/23 13:37:00;;;;;;;14.70;12.38;;;;;;;;;;5110218;27;20402;-83
2023/10/23 13:39:26;;;;;;;14.98;12.00;;;;;;;;;;5116694;27;20410;-82
2023/10/23 13:41:55;;;;;;;14.68;12.43;;;;;;;;;;5113404;27;20402;-83
2023/10/23 13:44:21;;;;;;;14.23;12.13;;;;;;;;;;5119439;27;20892;-83
2023/10/23 13:46:47;;;;;;;16.07;12.40;;;;;;;;;;5120893;27;20505;-83
2023/10/23 13:49:13;;;;;;;15.30;12.60;;;;;;;;;;5114370;27;20402;-83
2023/10/23 13:51:39;;;;;;;14.40;11.90;;;;;;;;;;5082187;27;20423;-82
2023/10/23 13:54:06;;;;;;;13.73;11.63;;;;;;;;;;5118224;27;20398;-84
2023/10/23 13:56:32;;;;;;;13.93;11.27;;;;;;;;;;5103117;27;20395;-83
2023/10/23 13:58:58;;;;;;;12.77;10.52;;;;;;;;;;5076815;28;20416;-83